Terminal Aerodrome Forecast
Issued by NWS Cleveland, OH

Home | Current Version | Previous Version | Graphics & Text | Print | Product List | Glossary On
Versions: 1 2 3 4 5 6 7 8 9 10 11 12 13 14 15 16 17 18 19 20 21 22 23 24 25 26
000
FTUS41 KCLE 231138
TAFCLE
TAF
KCLE 231138Z 2312/2418 24004KT P6SM SCT025 BKN035
      TEMPO 2313/2316 BKN025
     FM231700 29006KT P6SM VCTS SCT030CB BKN050
     FM232100 29005KT P6SM SCT045 BKN120 PROB30 2321/2402 5SM -TSRA
      BKN045CB=

USA.gov is the U.S. government's official web portal to all federal, state and local government web resources and services.